Time;durP1;ratioP1;P1;durP2;ratioP2;P2;SDS_P1;SDS_P2;PMS_P1;PMS_P2;Temp;Humidity;BMP_temperature;BMP_pressure;BME280_temperature;BME280_humidity;BME280_pressure;Samples;Min_cycle;Max_cycle;Signal;HPM_P1;HPM_P2
2022/11/06 00:01:10;;;;;;;;;18.00;16.25;;;;;-147.17;100.00;-15917.19;4984686;28;51737;-46
2022/11/06 00:03:35;;;;;;;;;11.00;11.00;;;;;-147.17;100.00;-15917.19;4980224;28;52735;-45
2022/11/06 00:08:50;;;;;;;;;9.00;8.33;;;;;-147.17;100.00;-15917.19;4979444;28;52454;-45
2022/11/06 00:11:17;;;;;;;;;8.67;8.33;;;;;-147.17;100.00;-15917.19;4982162;28;51514;-45
2022/11/06 00:13:43;;;;;;;;;8.25;8.25;;;;;-147.17;100.00;-15917.19;4981470;28;52208;-45
2022/11/06 00:16:11;;;;;;;;;7.00;6.33;;;;;-147.17;100.00;-15917.19;4985332;28;51096;-45
2022/11/06 00:18:37;;;;;;;;;6.67;6.67;;;;;-147.17;100.00;-15917.19;4983243;28;51811;-45
2022/11/06 00:21:14;;;;;;;;;16.00;14.75;;;;;-147.17;100.00;-15917.19;4984871;28;51543;-45
2022/11/06 00:23:40;;;;;;;;;9.00;8.00;;;;;-147.17;100.00;-15917.19;4978821;28;51438;-46
2022/11/06 00:26:07;;;;;;;;;9.00;9.00;;;;;-147.17;100.00;-15917.19;4981675;28;51088;-44
2022/11/06 00:28:33;;;;;;;;;12.75;12.50;;;;;-147.17;100.00;-15917.19;4980044;28;51203;-44
2022/11/06 00:31:21;;;;;;;;;8.67;6.67;;;;;-147.17;100.00;-15917.19;4984769;28;51192;-44
2022/11/06 00:33:46;;;;;;;;;8.67;8.00;;;;;-147.17;100.00;-15917.19;4982920;28;52163;-45
2022/11/06 00:36:14;;;;;;;;;10.33;9.67;;;;;-147.17;100.00;-15917.19;4982914;28;51349;-46
2022/11/06 00:38:39;;;;;;;;;10.67;9.67;;;;;-147.17;100.00;-15917.19;4982884;28;51728;-45
2022/11/06 00:41:10;;;;;;;;;10.67;10.00;;;;;-147.17;100.00;-15917.19;4981648;28;51247;-46
2022/11/06 00:43:35;;;;;;;;;24.00;20.75;;;;;-147.17;100.00;-15917.19;4981246;28;51887;-45
2022/11/06 00:46:06;;;;;;;;;8.50;8.00;;;;;-147.17;100.00;-15917.19;4981716;28;51641;-45
2022/11/06 00:48:33;;;;;;;;;8.67;8.67;;;;;-147.17;100.00;-15917.19;4985062;28;51304;-45
2022/11/06 00:51:09;;;;;;;;;6.67;5.33;;;;;-147.17;100.00;-15917.19;4984154;28;51161;-45
2022/11/06 00:53:35;;;;;;;;;6.00;5.33;;;;;-147.17;100.00;-15917.19;4983235;28;52088;-45
2022/11/06 00:56:07;;;;;;;;;6.67;6.67;;;;;-147.17;100.00;-15917.19;4980436;28;51210;-44
2022/11/06 00:58:33;;;;;;;;;5.67;5.67;;;;;-147.17;100.00;-15917.19;4984130;28;51346;-46
2022/11/06 01:01:10;;;;;;;;;9.00;9.00;;;;;-147.17;100.00;-15917.19;4986199;28;52709;-45
2022/11/06 01:03:37;;;;;;;;;8.25;8.00;;;;;-147.17;100.00;-15917.19;4968749;28;52095;-45
2022/11/06 01:06:08;;;;;;;;;8.00;6.33;;;;;-147.17;100.00;-15917.19;4987256;28;51176;-44
2022/11/06 01:08:33;;;;;;;;;5.00;5.00;;;;;-147.17;100.00;-15917.19;4984846;28;51222;-45
2022/11/06 01:11:05;;;;;;;;;6.00;5.33;;;;;-147.17;100.00;-15917.19;4986551;28;51263;-44
2022/11/06 01:13:31;;;;;;;;;6.00;6.00;;;;;-147.17;100.00;-15917.19;4983101;28;51673;-45
2022/11/06 01:15:56;;;;;;;;;4.67;4.00;;;;;-147.17;100.00;-15917.19;4986607;28;51325;-45
2022/11/06 01:18:21;;;;;;;;;4.67;4.67;;;;;-147.17;100.00;-15917.19;4980707;28;51148;-46
2022/11/06 01:20:47;;;;;;;;;6.00;5.67;;;;;-147.17;100.00;-15917.19;4979075;28;51575;-45
2022/11/06 01:23:12;;;;;;;;;5.00;4.33;;;;;-147.17;100.00;-15917.19;4982094;28;52036;-45
2022/11/06 01:25:38;;;;;;;;;6.00;6.00;;;;;-147.17;100.00;-15917.19;4985796;28;52488;-47
2022/11/06 01:28:03;;;;;;;;;5.33;5.33;;;;;-147.17;100.00;-15917.19;4984805;28;51808;-45
2022/11/06 01:30:29;;;;;;;;;8.33;6.00;;;;;-147.17;100.00;-15917.19;4969389;28;51156;-45
2022/11/06 01:32:54;;;;;;;;;9.33;9.33;;;;;-147.17;100.00;-15917.19;4984365;28;52967;-45
2022/11/06 01:35:20;;;;;;;;;8.00;8.00;;;;;-147.17;100.00;-15917.19;4984854;28;51256;-45
2022/11/06 01:37:45;;;;;;;;;5.00;5.00;;;;;-147.17;100.00;-15917.19;4985206;28;51363;-45
2022/11/06 01:40:10;;;;;;;;;6.00;5.50;;;;;-147.17;100.00;-15917.19;4982392;28;52797;-45
2022/11/06 01:42:36;;;;;;;;;10.00;9.00;;;;;-147.17;100.00;-15917.19;4986363;28;56167;-45
2022/11/06 01:45:04;;;;;;;;;6.33;5.33;;;;;-147.17;100.00;-15917.19;4966462;28;51524;-45
2022/11/06 01:47:29;;;;;;;;;4.67;4.67;;;;;-147.17;100.00;-15917.19;4985773;28;51170;-44
2022/11/06 01:49:59;;;;;;;;;5.33;5.00;;;;;-147.17;100.00;-15917.19;4982122;28;52643;-43
2022/11/06 01:52:26;;;;;;;;;5.00;5.00;;;;;-147.17;100.00;-15917.19;4981109;28;52972;-44
2022/11/06 01:54:58;;;;;;;;;5.00;5.00;;;;;-147.17;100.00;-15917.19;4980941;28;51318;-44
2022/11/06 01:57:24;;;;;;;;;6.00;6.00;;;;;-147.17;100.00;-15917.19;4976841;28;53021;-44
2022/11/06 01:59:53;;;;;;;;;7.33;6.00;;;;;-147.17;100.00;-15917.19;4985196;28;51345;-44
2022/11/06 02:02:18;;;;;;;;;10.00;8.00;;;;;-147.17;100.00;-15917.19;4963319;28;51306;-45
2022/11/06 02:04:47;;;;;;;;;4.50;4.50;;;;;-147.17;100.00;-15917.19;4984874;28;51432;-45
2022/11/06 02:07:13;;;;;;;;;2.67;2.67;;;;;-147.17;100.00;-15917.19;4984041;28;51654;-46
2022/11/06 02:09:39;;;;;;;;;6.33;5.67;;;;;-147.17;100.00;-15917.19;4983356;28;51326;-45
2022/11/06 02:12:07;;;;;;;;;5.33;5.00;;;;;-147.17;100.00;-15917.19;4980879;28;51112;-46
2022/11/06 02:14:35;;;;;;;;;5.00;5.00;;;;;-147.17;100.00;-15917.19;4984372;28;52930;-46
2022/11/06 02:17:08;;;;;;;;;5.00;5.00;;;;;-147.17;100.00;-15917.19;4984550;28;51158;-47
2022/11/06 02:20:00;;;;;;;;;7.00;5.67;;;;;-147.17;100.00;-15917.19;4985240;28;51159;-45
2022/11/06 02:23:14;;;;;;;;;5.67;5.67;;;;;-147.17;100.00;-15917.19;4984544;28;52301;-45
2022/11/06 02:25:55;;;;;;;;;6.00;6.00;;;;;-147.17;100.00;-15917.19;4977604;28;51213;-45
2022/11/06 02:28:27;;;;;;;;;11.00;9.25;;;;;-147.17;100.00;-15917.19;4986138;28;52079;-44
2022/11/06 02:30:55;;;;;;;;;6.00;6.00;;;;;-147.17;100.00;-15917.19;4982384;28;51860;-45
2022/11/06 02:33:32;;;;;;;;;5.00;5.00;;;;;-147.17;100.00;-15917.19;4986357;28;53906;-45
2022/11/06 02:36:01;;;;;;;;;4.00;4.00;;;;;-147.17;100.00;-15917.19;4983546;28;51253;-45
2022/11/06 02:38:33;;;;;;;;;6.67;5.33;;;;;-147.17;100.00;-15917.19;4984984;28;51153;-44
2022/11/06 02:41:03;;;;;;;;;6.00;6.00;;;;;-147.17;100.00;-15917.19;4982294;28;51972;-44
2022/11/06 02:43:41;;;;;;;;;5.33;5.33;;;;;-147.17;100.00;-15917.19;4961512;28;52748;-44
2022/11/06 02:46:33;;;;;;;;;4.33;4.00;;;;;-147.17;100.00;-15917.19;4986468;28;51301;-44
2022/11/06 02:49:15;;;;;;;;;4.00;3.67;;;;;-147.17;100.00;-15917.19;4986307;28;51273;-45
2022/11/06 02:51:50;;;;;;;;;6.00;5.00;;;;;-147.17;100.00;-15917.19;4985741;28;51161;-45
2022/11/06 02:54:20;;;;;;;;;7.33;5.67;;;;;-147.17;100.00;-15917.19;4966750;28;51762;-44
2022/11/06 02:56:51;;;;;;;;;5.33;5.00;;;;;-147.17;100.00;-15917.19;4985071;28;51322;-45
2022/11/06 02:59:29;;;;;;;;;9.00;6.75;;;;;-147.17;100.00;-15917.19;4981112;28;51581;-45
2022/11/06 03:02:00;;;;;;;;;5.75;5.00;;;;;-147.17;100.00;-15917.19;4982607;28;51749;-44
2022/11/06 03:04:35;;;;;;;;;6.00;5.67;;;;;-147.17;100.00;-15917.19;4984593;28;51300;-44
2022/11/06 03:07:19;;;;;;;;;4.67;4.33;;;;;-147.17;100.00;-15917.19;4982403;28;51837;-45
2022/11/06 03:09:47;;;;;;;;;7.67;6.00;;;;;-147.17;100.00;-15917.19;4984565;28;51263;-45
2022/11/06 03:12:32;;;;;;;;;4.67;4.67;;;;;-147.17;100.00;-15917.19;4982540;28;51161;-45
2022/11/06 03:15:30;;;;;;;;;6.00;5.00;;;;;-147.17;100.00;-15917.19;4978917;28;51822;-45
2022/11/06 03:18:17;;;;;;;;;4.00;4.00;;;;;-147.17;100.00;-15917.19;4983043;28;51121;-45
2022/11/06 03:20:49;;;;;;;;;7.33;5.33;;;;;-147.17;100.00;-15917.19;4982048;28;51180;-45
2022/11/06 03:23:35;;;;;;;;;5.67;5.67;;;;;-147.17;100.00;-15917.19;4986729;28;51265;-45
2022/11/06 03:26:26;;;;;;;;;5.67;5.00;;;;;-147.17;100.00;-15917.19;4979628;28;52867;-45
2022/11/06 03:29:24;;;;;;;;;5.33;4.67;;;;;-147.17;100.00;-15917.19;4982348;28;51310;-45
2022/11/06 03:31:55;;;;;;;;;4.67;4.00;;;;;-147.17;100.00;-15917.19;4982456;28;51992;-45
2022/11/06 03:34:39;;;;;;;;;5.00;5.00;;;;;-147.17;100.00;-15917.19;4986182;28;51294;-45
2022/11/06 03:37:12;;;;;;;;;4.00;4.00;;;;;-147.17;100.00;-15917.19;4982590;28;51107;-44
2022/11/06 03:39:45;;;;;;;;;5.67;5.67;;;;;-147.17;100.00;-15917.19;4983771;28;51893;-45
2022/11/06 03:42:16;;;;;;;;;5.00;4.00;;;;;-147.17;100.00;-15917.19;4980736;28;51903;-45
2022/11/06 03:44:53;;;;;;;;;5.33;5.00;;;;;-147.17;100.00;-15917.19;4984943;28;51512;-45
2022/11/06 03:47:31;;;;;;;;;9.00;6.00;;;;;-147.17;100.00;-15917.19;4984946;28;51817;-45
2022/11/06 03:50:09;;;;;;;;;8.00;6.00;;;;;-147.17;100.00;-15917.19;4975257;28;51299;-45
2022/11/06 03:52:39;;;;;;;;;8.00;5.00;;;;;-147.17;100.00;-15917.19;4985624;28;51569;-45
2022/11/06 03:55:11;;;;;;;;;3.67;3.67;;;;;-147.17;100.00;-15917.19;4985043;28;51412;-45
2022/11/06 03:57:57;;;;;;;;;5.33;5.33;;;;;-147.17;100.00;-15917.19;4982718;28;51741;-45
2022/11/06 04:00:22;;;;;;;;;5.50;4.00;;;;;-147.17;100.00;-15917.19;4986077;28;51422;-45
2022/11/06 04:03:03;;;;;;;;;6.00;5.33;;;;;-147.17;100.00;-15917.19;4983713;28;53633;-45
2022/11/06 04:05:32;;;;;;;;;5.00;5.00;;;;;-147.17;100.00;-15917.19;4980331;28;51294;-44
2022/11/06 04:16:17;;;;;;;;;3.67;3.00;;;;;-147.17;100.00;-15917.19;4985322;28;51378;-45
2022/11/06 04:18:43;;;;;;;;;5.00;4.50;;;;;-147.17;100.00;-15917.19;4987117;28;51887;-45
2022/11/06 04:21:21;;;;;;;;;6.00;4.00;;;;;-147.17;100.00;-15917.19;4967244;28;52702;-45
2022/11/06 04:26:34;;;;;;;;;4.00;4.00;;;;;-147.17;100.00;-15917.19;4986856;28;51797;-45
2022/11/06 04:26:57;;;;;;;;;6.25;6.00;;;;;-147.17;100.00;-15917.19;4988696;28;51371;-45
2022/11/06 04:29:53;;;;;;;;;5.00;5.00;;;;;-147.17;100.00;-15917.19;4968143;28;51257;-45
2022/11/06 04:32:47;;;;;;;;;4.25;4.00;;;;;-147.17;100.00;-15917.19;4969484;28;51263;-44
2022/11/06 04:35:21;;;;;;;;;4.67;3.00;;;;;-147.17;100.00;-15917.19;4987361;28;52221;-44
2022/11/06 04:37:55;;;;;;;;;8.25;5.00;;;;;-147.17;100.00;-15917.19;4984766;28;51303;-44
2022/11/06 04:40:40;;;;;;;;;4.00;4.00;;;;;-147.17;100.00;-15917.19;4983691;28;52055;-45
2022/11/06 04:43:13;;;;;;;;;4.00;4.00;;;;;-147.17;100.00;-15917.19;4987298;28;52184;-45
2022/11/06 04:45:44;;;;;;;;;4.67;4.67;;;;;-147.17;100.00;-15917.19;4984973;28;51214;-45
2022/11/06 04:48:11;;;;;;;;;4.00;4.00;;;;;-147.17;100.00;-15917.19;4986562;28;51880;-45
2022/11/06 04:50:43;;;;;;;;;5.00;5.00;;;;;-147.17;100.00;-15917.19;4986132;28;51210;-44
2022/11/06 04:53:10;;;;;;;;;4.00;3.33;;;;;-147.17;100.00;-15917.19;4987913;28;51329;-44
2022/11/06 04:55:51;;;;;;;;;5.00;3.67;;;;;-147.17;100.00;-15917.19;4987674;28;51440;-45
2022/11/06 04:58:17;;;;;;;;;4.00;4.00;;;;;-147.17;100.00;-15917.19;4986930;28;51316;-45
2022/11/06 05:00:46;;;;;;;;;4.33;4.33;;;;;-147.17;100.00;-15917.19;4986360;28;51561;-46
2022/11/06 05:03:12;;;;;;;;;5.00;3.67;;;;;-147.17;100.00;-15917.19;4986615;28;51214;-45
2022/11/06 05:05:37;;;;;;;;;3.00;3.00;;;;;-147.17;100.00;-15917.19;4984897;28;51407;-45
2022/11/06 05:08:03;;;;;;;;;5.67;4.00;;;;;-147.17;100.00;-15917.19;4985772;28;51734;-45
2022/11/06 05:10:28;;;;;;;;;3.33;3.00;;;;;-147.17;100.00;-15917.19;4987505;28;51954;-46
2022/11/06 05:12:53;;;;;;;;;4.00;4.00;;;;;-147.17;100.00;-15917.19;4987674;28;51222;-46
2022/11/06 05:15:19;;;;;;;;;5.33;5.00;;;;;-147.17;100.00;-15917.19;4985065;28;51267;-45
2022/11/06 05:17:44;;;;;;;;;4.25;4.25;;;;;-147.17;100.00;-15917.19;4983561;28;51520;-45
2022/11/06 05:20:09;;;;;;;;;5.00;4.00;;;;;-147.17;100.00;-15917.19;4985667;28;62236;-45
2022/11/06 05:25:32;;;;;;;;;5.67;4.33;;;;;-147.17;100.00;-15917.19;4984820;28;51822;-44
2022/11/06 05:27:58;;;;;;;;;6.50;4.25;;;;;-147.17;100.00;-15917.19;4982884;28;52692;-46
2022/11/06 05:30:24;;;;;;;;;4.67;4.00;;;;;-147.17;100.00;-15917.19;4983911;28;51320;-45
2022/11/06 05:32:50;;;;;;;;;4.00;4.00;;;;;-147.17;100.00;-15917.19;4985016;28;51274;-45
2022/11/06 05:35:17;;;;;;;;;5.00;4.00;;;;;-147.17;100.00;-15917.19;4987868;28;51125;-44
2022/11/06 05:37:42;;;;;;;;;3.00;3.00;;;;;-147.17;100.00;-15917.19;4982173;28;51191;-44
2022/11/06 05:40:08;;;;;;;;;5.00;4.33;;;;;-147.17;100.00;-15917.19;4988000;28;52681;-45
2022/11/06 05:42:37;;;;;;;;;3.33;3.00;;;;;-147.17;100.00;-15917.19;4967607;28;51136;-45
2022/11/06 05:45:03;;;;;;;;;6.67;5.00;;;;;-147.17;100.00;-15917.19;4982560;28;51337;-45
2022/11/06 05:47:28;;;;;;;;;5.67;5.00;;;;;-147.17;100.00;-15917.19;4966485;28;51604;-45
2022/11/06 05:49:53;;;;;;;;;5.00;5.00;;;;;-147.17;100.00;-15917.19;4986419;28;52003;-45
2022/11/06 05:52:19;;;;;;;;;6.33;5.00;;;;;-147.17;100.00;-15917.19;4984527;28;51295;-45
2022/11/06 05:54:44;;;;;;;;;6.25;6.25;;;;;-147.17;100.00;-15917.19;4987808;28;51461;-45
2022/11/06 05:57:09;;;;;;;;;3.00;3.00;;;;;-147.17;100.00;-15917.19;4984838;28;51096;-44
2022/11/06 05:59:35;;;;;;;;;7.67;5.67;;;;;-147.17;100.00;-15917.19;4970992;28;51156;-44
2022/11/06 06:02:00;;;;;;;;;4.00;4.00;;;;;-147.17;100.00;-15917.19;4980398;28;51180;-45
2022/11/06 06:04:26;;;;;;;;;4.00;3.67;;;;;-147.17;100.00;-15917.19;4985849;28;51423;-46
2022/11/06 06:06:51;;;;;;;;;6.00;4.75;;;;;-147.17;100.00;-15917.19;4986904;28;51956;-45
2022/11/06 06:09:16;;;;;;;;;4.00;4.00;;;;;-147.17;100.00;-15917.19;4986425;28;51843;-44
2022/11/06 06:11:42;;;;;;;;;6.00;5.00;;;;;-147.17;100.00;-15917.19;4982967;28;51309;-44
2022/11/06 06:14:07;;;;;;;;;7.75;5.00;;;;;-147.17;100.00;-15917.19;4984470;28;51231;-45
2022/11/06 06:16:32;;;;;;;;;8.00;6.25;;;;;-147.17;100.00;-15917.19;4984148;28;51398;-44
2022/11/06 06:18:58;;;;;;;;;5.00;3.33;;;;;-147.17;100.00;-15917.19;4981595;28;51767;-45
2022/11/06 06:21:23;;;;;;;;;4.00;4.00;;;;;-147.17;100.00;-15917.19;4985042;28;52105;-45
2022/11/06 06:23:48;;;;;;;;;5.00;4.00;;;;;-147.17;100.00;-15917.19;4952456;28;51541;-45
2022/11/06 06:26:14;;;;;;;;;6.33;5.33;;;;;-147.17;100.00;-15917.19;4986699;28;51355;-46
2022/11/06 06:28:39;;;;;;;;;5.00;5.00;;;;;-147.17;100.00;-15917.19;4981247;28;51928;-44
2022/11/06 06:31:06;;;;;;;;;4.00;3.50;;;;;-147.17;100.00;-15917.19;4981891;28;51566;-45
2022/11/06 06:33:32;;;;;;;;;6.50;6.25;;;;;-147.17;100.00;-15917.19;4984791;28;50993;-45
2022/11/06 06:35:57;;;;;;;;;3.33;1.00;;;;;-147.17;100.00;-15917.19;4986222;28;51572;-45
2022/11/06 06:38:24;;;;;;;;;5.00;4.00;;;;;-147.17;100.00;-15917.19;4981626;28;52836;-45
2022/11/06 06:40:50;;;;;;;;;5.00;5.00;;;;;-147.17;100.00;-15917.19;4984851;28;51488;-44
2022/11/06 06:43:15;;;;;;;;;4.33;3.67;;;;;-147.17;100.00;-15917.19;4982644;28;52564;-45
2022/11/06 06:45:40;;;;;;;;;6.00;5.75;;;;;-147.17;100.00;-15917.19;4985738;28;51885;-44
2022/11/06 06:48:06;;;;;;;;;4.67;4.33;;;;;-147.17;100.00;-15917.19;4985006;28;52140;-44
2022/11/06 06:50:31;;;;;;;;;3.33;3.33;;;;;-147.17;100.00;-15917.19;4966757;28;52698;-44
2022/11/06 06:52:57;;;;;;;;;5.75;4.50;;;;;-147.17;100.00;-15917.19;4985421;28;51599;-45
2022/11/06 06:55:23;;;;;;;;;9.00;7.75;;;;;-147.17;100.00;-15917.19;4985133;28;51301;-46
2022/11/06 06:57:58;;;;;;;;;4.00;4.00;;;;;-147.17;100.00;-15917.19;4981442;28;52402;-45
2022/11/06 07:00:24;;;;;;;;;5.33;5.00;;;;;-147.17;100.00;-15917.19;4985227;28;51255;-45
2022/11/06 07:02:50;;;;;;;;;7.33;5.00;;;;;-147.17;100.00;-15917.19;4982178;28;51297;-45
2022/11/06 07:05:15;;;;;;;;;4.00;4.00;;;;;-147.17;100.00;-15917.19;4985450;28;51143;-45
2022/11/06 07:07:41;;;;;;;;;4.00;4.00;;;;;-147.17;100.00;-15917.19;4983433;28;51467;-45
2022/11/06 07:10:06;;;;;;;;;4.33;4.33;;;;;-147.17;100.00;-15917.19;4982552;28;51346;-45
2022/11/06 07:12:32;;;;;;;;;5.00;4.33;;;;;-147.17;100.00;-15917.19;4978820;28;51637;-46
2022/11/06 07:14:57;;;;;;;;;6.25;4.75;;;;;-147.17;100.00;-15917.19;4987009;28;52665;-45
2022/11/06 07:17:22;;;;;;;;;4.00;4.00;;;;;-147.17;100.00;-15917.19;4980555;28;52238;-45
2022/11/06 07:19:48;;;;;;;;;5.00;4.00;;;;;-147.17;100.00;-15917.19;4981758;28;51763;-45
2022/11/06 07:22:13;;;;;;;;;4.33;4.00;;;;;-147.17;100.00;-15917.19;4984323;28;51908;-45
2022/11/06 07:24:38;;;;;;;;;5.00;5.00;;;;;-147.17;100.00;-15917.19;4983114;28;51587;-45
2022/11/06 07:27:04;;;;;;;;;4.50;3.00;;;;;-147.17;100.00;-15917.19;4983877;28;63438;-45
2022/11/06 07:29:29;;;;;;;;;4.33;4.00;;;;;-147.17;100.00;-15917.19;4983916;28;51223;-45
2022/11/06 07:31:54;;;;;;;;;4.00;3.75;;;;;-147.17;100.00;-15917.19;4984009;28;51766;-46
2022/11/06 07:34:19;;;;;;;;;4.67;4.00;;;;;-147.17;100.00;-15917.19;4982043;28;51159;-43
2022/11/06 07:36:45;;;;;;;;;4.00;3.00;;;;;-147.17;100.00;-15917.19;4982716;28;51923;-46
2022/11/06 07:39:10;;;;;;;;;2.67;2.67;;;;;-147.17;100.00;-15917.19;4984114;28;51252;-45
2022/11/06 07:41:36;;;;;;;;;5.00;4.00;;;;;-147.17;100.00;-15917.19;4980824;28;51783;-45
2022/11/06 07:44:02;;;;;;;;;3.67;3.00;;;;;-147.17;100.00;-15917.19;4983401;28;51229;-45
2022/11/06 07:46:27;;;;;;;;;4.33;4.33;;;;;-147.17;100.00;-15917.19;4975513;28;52854;-45
2022/11/06 07:48:53;;;;;;;;;5.00;4.00;;;;;-147.17;100.00;-15917.19;4986684;28;51299;-45
2022/11/06 07:51:19;;;;;;;;;4.33;4.00;;;;;-147.17;100.00;-15917.19;4988561;28;51503;-46
2022/11/06 07:53:44;;;;;;;;;3.67;3.00;;;;;-147.17;100.00;-15917.19;4986224;28;51364;-45
2022/11/06 07:56:10;;;;;;;;;6.00;5.00;;;;;-147.17;100.00;-15917.19;4986823;28;52798;-45
2022/11/06 07:58:35;;;;;;;;;4.67;4.00;;;;;-147.17;100.00;-15917.19;4968834;28;51863;-45
2022/11/06 08:01:02;;;;;;;;;5.00;5.00;;;;;-147.17;100.00;-15917.19;4986133;28;51326;-45
2022/11/06 08:03:30;;;;;;;;;5.00;5.00;;;;;-147.17;100.00;-15917.19;4988515;28;51845;-45
2022/11/06 08:05:56;;;;;;;;;6.00;5.00;;;;;-147.17;100.00;-15917.19;4987307;28;52865;-45
2022/11/06 08:08:22;;;;;;;;;5.00;4.00;;;;;-147.17;100.00;-15917.19;4987411;28;51267;-45
2022/11/06 08:10:50;;;;;;;;;4.00;4.00;;;;;-147.17;100.00;-15917.19;4987337;28;51227;-44
2022/11/06 08:13:16;;;;;;;;;5.00;4.00;;;;;-147.17;100.00;-15917.19;4983739;28;51397;-45
2022/11/06 08:15:42;;;;;;;;;3.00;3.00;;;;;-147.17;100.00;-15917.19;4982948;28;51164;-44
2022/11/06 08:18:09;;;;;;;;;5.00;3.00;;;;;-147.17;100.00;-15917.19;4987528;28;51234;-44
2022/11/06 08:20:37;;;;;;;;;5.00;5.00;;;;;-147.17;100.00;-15917.19;4983979;28;53683;-44
2022/11/06 08:23:05;;;;;;;;;3.67;3.00;;;;;-147.17;100.00;-15917.19;4986399;28;51338;-45
2022/11/06 08:25:31;;;;;;;;;5.00;5.00;;;;;-147.17;100.00;-15917.19;4986595;28;51202;-46
2022/11/06 08:27:58;;;;;;;;;5.00;5.00;;;;;-147.17;100.00;-15917.19;4986525;28;51128;-46
2022/11/06 08:30:25;;;;;;;;;3.00;3.00;;;;;-147.17;100.00;-15917.19;4983958;28;51592;-45
2022/11/06 08:32:50;;;;;;;;;8.25;5.00;;;;;-147.17;100.00;-15917.19;4984264;28;51533;-45
2022/11/06 08:35:17;;;;;;;;;5.00;5.00;;;;;-147.17;100.00;-15917.19;4984143;28;51307;-45
2022/11/06 08:37:42;;;;;;;;;6.00;5.00;;;;;-147.17;100.00;-15917.19;4983544;28;51204;-44
2022/11/06 08:40:08;;;;;;;;;4.67;4.67;;;;;-147.17;100.00;-15917.19;4986353;28;51334;-45
2022/11/06 08:42:33;;;;;;;;;6.00;5.00;;;;;-147.17;100.00;-15917.19;4986793;28;53333;-46
2022/11/06 08:44:59;;;;;;;;;5.33;4.00;;;;;-147.17;100.00;-15917.19;4984220;28;59052;-46
2022/11/06 08:47:24;;;;;;;;;4.75;4.75;;;;;-147.17;100.00;-15917.19;4985065;28;51299;-44
2022/11/06 08:49:50;;;;;;;;;4.25;4.25;;;;;-147.17;100.00;-15917.19;4985127;28;51510;-46
2022/11/06 08:52:15;;;;;;;;;7.33;5.00;;;;;-147.17;100.00;-15917.19;4984111;28;51695;-44
2022/11/06 08:54:40;;;;;;;;;5.67;4.33;;;;;-147.17;100.00;-15917.19;4980723;28;51449;-45
2022/11/06 08:57:07;;;;;;;;;4.00;4.00;;;;;-147.17;100.00;-15917.19;4989533;28;51158;-45
2022/11/06 08:59:32;;;;;;;;;4.00;4.00;;;;;-147.17;100.00;-15917.19;4980886;28;51247;-49
2022/11/06 09:01:59;;;;;;;;;6.00;5.00;;;;;-147.17;100.00;-15917.19;4968012;28;51354;-45
2022/11/06 09:04:25;;;;;;;;;5.00;4.33;;;;;-147.17;100.00;-15917.19;4984617;28;51930;-46
2022/11/06 09:06:50;;;;;;;;;8.00;8.00;;;;;-147.17;100.00;-15917.19;4985217;28;52762;-45
2022/11/06 09:09:15;;;;;;;;;5.67;5.00;;;;;-147.17;100.00;-15917.19;4980624;28;51175;-45
2022/11/06 09:11:41;;;;;;;;;5.33;4.67;;;;;-147.17;100.00;-15917.19;4987119;28;51305;-45
2022/11/06 09:14:06;;;;;;;;;3.00;3.00;;;;;-147.17;100.00;-15917.19;4985547;28;51453;-46
2022/11/06 09:16:31;;;;;;;;;6.00;4.33;;;;;-147.17;100.00;-15917.19;4984494;28;51262;-44
2022/11/06 09:18:58;;;;;;;;;5.67;5.67;;;;;-147.17;100.00;-15917.19;4984312;28;51049;-45
2022/11/06 09:21:23;;;;;;;;;4.00;4.00;;;;;-147.17;100.00;-15917.19;4986189;28;51286;-45
2022/11/06 09:23:49;;;;;;;;;6.00;5.00;;;;;-147.17;100.00;-15917.19;4987791;28;52003;-45
2022/11/06 09:26:15;;;;;;;;;6.33;6.33;;;;;-147.17;100.00;-15917.19;4980158;28;51276;-45
2022/11/06 09:28:40;;;;;;;;;4.00;4.00;;;;;-147.17;100.00;-15917.19;4984259;28;51139;-45
2022/11/06 09:31:06;;;;;;;;;7.00;5.00;;;;;-147.17;100.00;-15917.19;4987180;28;51075;-44
2022/11/06 09:33:32;;;;;;;;;8.33;6.33;;;;;-147.17;100.00;-15917.19;4988067;28;51095;-45
2022/11/06 09:35:58;;;;;;;;;3.67;3.67;;;;;-147.17;100.00;-15917.19;4984919;28;51611;-45
2022/11/06 09:38:23;;;;;;;;;6.67;5.00;;;;;-147.17;100.00;-15917.19;4985279;28;51311;-45
2022/11/06 09:40:56;;;;;;;;;5.00;5.00;;;;;-147.17;100.00;-15917.19;4986330;28;51144;-45
2022/11/06 09:43:40;;;;;;;;;9.67;8.00;;;;;-147.17;100.00;-15917.19;4969563;28;52726;-45
2022/11/06 09:46:19;;;;;;;;;4.00;4.00;;;;;-147.17;100.00;-15917.19;4983707;28;52012;-45
2022/11/06 09:48:50;;;;;;;;;3.00;3.00;;;;;-147.17;100.00;-15917.19;4984661;28;54127;-46
2022/11/06 09:51:30;;;;;;;;;5.67;4.67;;;;;-147.17;100.00;-15917.19;4986086;28;51425;-45
2022/11/06 09:54:05;;;;;;;;;5.00;5.00;;;;;-147.17;100.00;-15917.19;4977851;28;54280;-45
2022/11/06 09:56:35;;;;;;;;;5.67;5.67;;;;;-147.17;100.00;-15917.19;4981020;28;51266;-44
2022/11/06 09:59:04;;;;;;;;;8.00;6.33;;;;;-147.17;100.00;-15917.19;4982791;28;51753;-45
2022/11/06 10:01:49;;;;;;;;;9.00;8.00;;;;;-147.17;100.00;-15917.19;4985623;28;51617;-46
2022/11/06 10:04:28;;;;;;;;;6.00;5.00;;;;;-147.17;100.00;-15917.19;4983155;28;52283;-44
2022/11/06 10:06:54;;;;;;;;;5.25;5.25;;;;;-147.17;100.00;-15917.19;4983335;28;51300;-44
2022/11/06 10:09:19;;;;;;;;;7.75;6.50;;;;;-147.17;100.00;-15917.19;4984183;28;51723;-45
2022/11/06 10:12:15;;;;;;;;;8.50;8.00;;;;;-147.17;100.00;-15917.19;4982323;28;52772;-44
2022/11/06 10:15:22;;;;;;;;;8.00;8.00;;;;;-147.17;100.00;-15917.19;4982889;28;51334;-44
2022/11/06 10:17:56;;;;;;;;;8.00;7.67;;;;;-147.17;100.00;-15917.19;4983356;28;51315;-44
2022/11/06 10:20:30;;;;;;;;;7.67;6.67;;;;;-147.17;100.00;-15917.19;4982742;28;51263;-44
2022/11/06 10:23:12;;;;;;;;;9.00;8.00;;;;;-147.17;100.00;-15917.19;4984349;28;51388;-45
2022/11/06 10:26:04;;;;;;;;;10.00;8.67;;;;;-147.17;100.00;-15917.19;4982304;28;52754;-45
2022/11/06 10:28:55;;;;;;;;;8.67;6.33;;;;;-147.17;100.00;-15917.19;4975938;28;51483;-45
2022/11/06 10:31:32;;;;;;;;;6.67;6.00;;;;;-147.17;100.00;-15917.19;4980101;28;51233;-45
2022/11/06 10:34:13;;;;;;;;;10.00;9.00;;;;;-147.17;100.00;-15917.19;4985215;28;51654;-45
2022/11/06 10:36:58;;;;;;;;;8.33;7.33;;;;;-147.17;100.00;-15917.19;4984128;28;51244;-45
2022/11/06 10:39:35;;;;;;;;;8.00;8.00;;;;;-147.17;100.00;-15917.19;4978403;28;51203;-44
2022/11/06 10:42:09;;;;;;;;;9.00;9.00;;;;;-147.17;100.00;-15917.19;4981707;28;51160;-45
2022/11/06 10:44:38;;;;;;;;;9.75;9.50;;;;;-147.17;100.00;-15917.19;4980349;28;51655;-45
2022/11/06 10:47:18;;;;;;;;;11.00;10.00;;;;;-147.17;100.00;-15917.19;4983206;28;51401;-45
2022/11/06 10:49:56;;;;;;;;;10.67;9.00;;;;;-147.17;100.00;-15917.19;4959182;28;51218;-44
2022/11/06 10:52:29;;;;;;;;;9.00;8.00;;;;;-147.17;100.00;-15917.19;4981207;28;51109;-46
2022/11/06 10:55:05;;;;;;;;;9.67;8.00;;;;;-147.17;100.00;-15917.19;4967088;28;51372;-45
2022/11/06 10:57:41;;;;;;;;;10.00;8.33;;;;;-147.17;100.00;-15917.19;4985991;28;51971;-45
2022/11/06 11:00:11;;;;;;;;;10.00;8.50;;;;;-147.17;100.00;-15917.19;4966735;28;51089;-44
2022/11/06 11:02:43;;;;;;;;;9.00;8.00;;;;;-147.17;100.00;-15917.19;4966324;28;51330;-46
2022/11/06 11:05:17;;;;;;;;;9.00;8.00;;;;;-147.17;100.00;-15917.19;4979916;28;51504;-50
2022/11/06 11:07:44;;;;;;;;;8.67;8.67;;;;;-147.17;100.00;-15917.19;4982834;28;51423;-45
2022/11/06 11:10:22;;;;;;;;;5.67;5.33;;;;;-147.17;100.00;-15917.19;4985483;28;51820;-46
2022/11/06 11:12:49;;;;;;;;;9.33;9.00;;;;;-147.17;100.00;-15917.19;4985417;28;51087;-45
2022/11/06 11:15:20;;;;;;;;;8.33;8.33;;;;;-147.17;100.00;-15917.19;4986393;28;51699;-45
2022/11/06 11:18:29;;;;;;;;;9.00;8.75;;;;;-147.17;100.00;-15917.19;4988950;28;51202;-45
2022/11/06 11:21:05;;;;;;;;;8.50;8.25;;;;;-147.17;100.00;-15917.19;4904676;28;52230;-45
2022/11/06 11:23:31;;;;;;;;;10.00;9.00;;;;;-147.17;100.00;-15917.19;4906281;28;50955;-46
2022/11/06 11:26:17;;;;;;;;;10.25;10.25;;;;;-147.17;100.00;-15917.19;4948953;28;51237;-44
2022/11/06 11:28:50;;;;;;;;;8.00;7.33;;;;;-147.17;100.00;-15917.19;4985896;28;52717;-46
2022/11/06 11:31:17;;;;;;;;;10.50;10.00;;;;;-147.17;100.00;-15917.19;4982959;28;51077;-44